sensor_id;sensor_type;location;lat;lon;timestamp;P1;durP1;ratioP1;P2;durP2;ratioP2
67749;SDS011;54550;48.838;8.828;2023-05-15T00:00:08;3.03;;;2.80;;
67749;SDS011;54550;48.838;8.828;2023-05-15T00:02:36;4.72;;;2.97;;
67749;SDS011;54550;48.838;8.828;2023-05-15T00:05:06;3.53;;;2.80;;
67749;SDS011;54550;48.838;8.828;2023-05-15T00:07:32;6.38;;;3.08;;
67749;SDS011;54550;48.838;8.828;2023-05-15T00:09:59;4.43;;;3.80;;
67749;SDS011;54550;48.838;8.828;2023-05-15T00:12:25;2.93;;;2.53;;
67749;SDS011;54550;48.838;8.828;2023-05-15T00:14:51;3.73;;;3.17;;
67749;SDS011;54550;48.838;8.828;2023-05-15T00:17:16;3.97;;;2.53;;
67749;SDS011;54550;48.838;8.828;2023-05-15T00:19:42;3.53;;;3.03;;
67749;SDS011;54550;48.838;8.828;2023-05-15T00:22:07;3.70;;;2.47;;
67749;SDS011;54550;48.838;8.828;2023-05-15T00:24:33;4.77;;;3.43;;
67749;SDS011;54550;48.838;8.828;2023-05-15T00:26:59;4.50;;;3.93;;
67749;SDS011;54550;48.838;8.828;2023-05-15T00:29:25;4.68;;;3.38;;
67749;SDS011;54550;48.838;8.828;2023-05-15T00:31:50;3.03;;;2.67;;
67749;SDS011;54550;48.838;8.828;2023-05-15T00:34:16;4.17;;;2.70;;
67749;SDS011;54550;48.838;8.828;2023-05-15T00:36:42;3.00;;;2.70;;
67749;SDS011;54550;48.838;8.828;2023-05-15T00:39:08;5.05;;;3.25;;
67749;SDS011;54550;48.838;8.828;2023-05-15T00:41:33;3.30;;;2.50;;
67749;SDS011;54550;48.838;8.828;2023-05-15T00:44:00;6.60;;;3.17;;
67749;SDS011;54550;48.838;8.828;2023-05-15T00:46:26;5.05;;;4.20;;
67749;SDS011;54550;48.838;8.828;2023-05-15T00:48:54;3.30;;;2.97;;
67749;SDS011;54550;48.838;8.828;2023-05-15T00:51:21;5.32;;;3.42;;
67749;SDS011;54550;48.838;8.828;2023-05-15T00:53:47;5.53;;;3.67;;
67749;SDS011;54550;48.838;8.828;2023-05-15T00:56:16;3.47;;;2.67;;
67749;SDS011;54550;48.838;8.828;2023-05-15T00:58:42;3.92;;;2.95;;
67749;SDS011;54550;48.838;8.828;2023-05-15T01:01:10;4.63;;;3.50;;
67749;SDS011;54550;48.838;8.828;2023-05-15T01:03:37;5.03;;;3.42;;
67749;SDS011;54550;48.838;8.828;2023-05-15T01:06:03;3.00;;;2.43;;
67749;SDS011;54550;48.838;8.828;2023-05-15T01:11:08;6.63;;;3.15;;
67749;SDS011;54550;48.838;8.828;2023-05-15T01:13:35;4.28;;;3.25;;
67749;SDS011;54550;48.838;8.828;2023-05-15T01:16:01;4.40;;;3.00;;
67749;SDS011;54550;48.838;8.828;2023-05-15T01:18:26;4.00;;;2.73;;
67749;SDS011;54550;48.838;8.828;2023-05-15T01:26:54;3.72;;;3.05;;
67749;SDS011;54550;48.838;8.828;2023-05-15T01:35:49;3.17;;;2.88;;
67749;SDS011;54550;48.838;8.828;2023-05-15T01:41:27;3.60;;;2.90;;
67749;SDS011;54550;48.838;8.828;2023-05-15T01:44:40;5.13;;;3.05;;
67749;SDS011;54550;48.838;8.828;2023-05-15T01:46:51;4.35;;;3.30;;
67749;SDS011;54550;48.838;8.828;2023-05-15T01:49:21;3.72;;;2.97;;
67749;SDS011;54550;48.838;8.828;2023-05-15T01:51:52;3.30;;;3.00;;
67749;SDS011;54550;48.838;8.828;2023-05-15T01:54:34;3.90;;;3.15;;
67749;SDS011;54550;48.838;8.828;2023-05-15T01:57:01;3.85;;;3.08;;
67749;SDS011;54550;48.838;8.828;2023-05-15T01:59:27;2.53;;;2.00;;
67749;SDS011;54550;48.838;8.828;2023-05-15T02:01:55;3.95;;;3.05;;
67749;SDS011;54550;48.838;8.828;2023-05-15T02:04:22;5.13;;;3.30;;
67749;SDS011;54550;48.838;8.828;2023-05-15T02:06:48;3.00;;;2.63;;
67749;SDS011;54550;48.838;8.828;2023-05-15T02:09:16;3.47;;;3.10;;
67749;SDS011;54550;48.838;8.828;2023-05-15T02:11:43;3.92;;;3.53;;
67749;SDS011;54550;48.838;8.828;2023-05-15T02:14:09;6.20;;;4.33;;
67749;SDS011;54550;48.838;8.828;2023-05-15T02:16:36;5.27;;;3.93;;
67749;SDS011;54550;48.838;8.828;2023-05-15T02:19:02;7.53;;;4.10;;
67749;SDS011;54550;48.838;8.828;2023-05-15T02:21:27;5.57;;;3.93;;
67749;SDS011;54550;48.838;8.828;2023-05-15T02:23:53;4.73;;;4.10;;
67749;SDS011;54550;48.838;8.828;2023-05-15T02:29:36;5.70;;;3.70;;
67749;SDS011;54550;48.838;8.828;2023-05-15T02:37:30;3.85;;;3.10;;
67749;SDS011;54550;48.838;8.828;2023-05-15T02:39:58;5.30;;;4.10;;
67749;SDS011;54550;48.838;8.828;2023-05-15T02:42:25;5.13;;;3.73;;
67749;SDS011;54550;48.838;8.828;2023-05-15T02:44:53;4.30;;;3.50;;
67749;SDS011;54550;48.838;8.828;2023-05-15T02:47:20;3.37;;;3.07;;
67749;SDS011;54550;48.838;8.828;2023-05-15T02:49:47;4.17;;;3.10;;
67749;SDS011;54550;48.838;8.828;2023-05-15T02:52:13;6.77;;;3.50;;
67749;SDS011;54550;48.838;8.828;2023-05-15T02:54:38;3.13;;;2.70;;
67749;SDS011;54550;48.838;8.828;2023-05-15T02:57:05;4.70;;;4.00;;
67749;SDS011;54550;48.838;8.828;2023-05-15T02:59:32;3.93;;;3.10;;
67749;SDS011;54550;48.838;8.828;2023-05-15T03:01:57;5.90;;;3.73;;
67749;SDS011;54550;48.838;8.828;2023-05-15T03:04:23;5.00;;;3.40;;
67749;SDS011;54550;48.838;8.828;2023-05-15T03:06:49;4.27;;;3.50;;
67749;SDS011;54550;48.838;8.828;2023-05-15T03:09:14;4.73;;;3.57;;
67749;SDS011;54550;48.838;8.828;2023-05-15T03:11:40;5.73;;;3.60;;
67749;SDS011;54550;48.838;8.828;2023-05-15T03:14:06;4.40;;;3.80;;
67749;SDS011;54550;48.838;8.828;2023-05-15T03:16:31;4.33;;;3.27;;
67749;SDS011;54550;48.838;8.828;2023-05-15T03:18:57;3.80;;;3.00;;
67749;SDS011;54550;48.838;8.828;2023-05-15T03:21:23;5.83;;;3.33;;
67749;SDS011;54550;48.838;8.828;2023-05-15T03:23:48;3.60;;;3.30;;
67749;SDS011;54550;48.838;8.828;2023-05-15T03:26:14;4.17;;;3.53;;
67749;SDS011;54550;48.838;8.828;2023-05-15T03:28:39;3.43;;;2.80;;
67749;SDS011;54550;48.838;8.828;2023-05-15T03:31:05;3.60;;;2.70;;
67749;SDS011;54550;48.838;8.828;2023-05-15T03:33:32;2.93;;;2.47;;
67749;SDS011;54550;48.838;8.828;2023-05-15T03:35:58;3.57;;;2.97;;
67749;SDS011;54550;48.838;8.828;2023-05-15T03:38:24;4.17;;;3.10;;
67749;SDS011;54550;48.838;8.828;2023-05-15T03:40:49;5.90;;;4.00;;
67749;SDS011;54550;48.838;8.828;2023-05-15T03:43:15;4.90;;;3.60;;
67749;SDS011;54550;48.838;8.828;2023-05-15T03:45:40;4.07;;;3.33;;
67749;SDS011;54550;48.838;8.828;2023-05-15T03:48:06;4.67;;;3.43;;
67749;SDS011;54550;48.838;8.828;2023-05-15T03:50:32;4.70;;;4.10;;
67749;SDS011;54550;48.838;8.828;2023-05-15T03:52:57;6.40;;;3.97;;
67749;SDS011;54550;48.838;8.828;2023-05-15T03:55:23;3.67;;;3.37;;
67749;SDS011;54550;48.838;8.828;2023-05-15T03:57:48;3.60;;;3.30;;
67749;SDS011;54550;48.838;8.828;2023-05-15T04:00:14;3.20;;;2.90;;
67749;SDS011;54550;48.838;8.828;2023-05-15T04:02:40;4.37;;;3.10;;
67749;SDS011;54550;48.838;8.828;2023-05-15T04:05:06;7.80;;;3.33;;
67749;SDS011;54550;48.838;8.828;2023-05-15T04:07:33;4.82;;;3.88;;
67749;SDS011;54550;48.838;8.828;2023-05-15T04:10:00;4.30;;;3.33;;
67749;SDS011;54550;48.838;8.828;2023-05-15T04:12:30;4.60;;;3.10;;
67749;SDS011;54550;48.838;8.828;2023-05-15T04:14:58;4.80;;;3.77;;
67749;SDS011;54550;48.838;8.828;2023-05-15T04:17:37;5.67;;;3.70;;
67749;SDS011;54550;48.838;8.828;2023-05-15T04:20:02;4.40;;;3.23;;
67749;SDS011;54550;48.838;8.828;2023-05-15T04:22:30;3.72;;;2.97;;
67749;SDS011;54550;48.838;8.828;2023-05-15T04:24:55;4.07;;;3.63;;
67749;SDS011;54550;48.838;8.828;2023-05-15T04:27:21;6.53;;;3.77;;
67749;SDS011;54550;48.838;8.828;2023-05-15T04:29:46;5.03;;;4.00;;
67749;SDS011;54550;48.838;8.828;2023-05-15T04:32:12;6.17;;;3.60;;
67749;SDS011;54550;48.838;8.828;2023-05-15T04:34:37;4.17;;;3.50;;
67749;SDS011;54550;48.838;8.828;2023-05-15T04:37:04;5.40;;;4.67;;
67749;SDS011;54550;48.838;8.828;2023-05-15T04:39:29;4.60;;;4.07;;
67749;SDS011;54550;48.838;8.828;2023-05-15T04:41:55;5.63;;;3.90;;
67749;SDS011;54550;48.838;8.828;2023-05-15T04:44:20;5.50;;;4.20;;
67749;SDS011;54550;48.838;8.828;2023-05-15T04:46:46;6.10;;;3.90;;
67749;SDS011;54550;48.838;8.828;2023-05-15T04:49:11;6.40;;;3.80;;
67749;SDS011;54550;48.838;8.828;2023-05-15T04:51:37;6.00;;;3.97;;
67749;SDS011;54550;48.838;8.828;2023-05-15T04:54:03;5.73;;;4.17;;
67749;SDS011;54550;48.838;8.828;2023-05-15T04:56:28;6.20;;;4.53;;
67749;SDS011;54550;48.838;8.828;2023-05-15T04:58:54;4.90;;;3.70;;
67749;SDS011;54550;48.838;8.828;2023-05-15T05:01:19;6.87;;;5.07;;
67749;SDS011;54550;48.838;8.828;2023-05-15T05:03:45;4.30;;;3.90;;
67749;SDS011;54550;48.838;8.828;2023-05-15T05:06:10;6.30;;;4.00;;
67749;SDS011;54550;48.838;8.828;2023-05-15T05:08:36;4.87;;;3.57;;
67749;SDS011;54550;48.838;8.828;2023-05-15T05:11:01;4.40;;;3.60;;
67749;SDS011;54550;48.838;8.828;2023-05-15T05:13:27;3.83;;;3.50;;
67749;SDS011;54550;48.838;8.828;2023-05-15T05:15:53;3.50;;;3.20;;
67749;SDS011;54550;48.838;8.828;2023-05-15T05:18:18;3.50;;;2.83;;
67749;SDS011;54550;48.838;8.828;2023-05-15T05:20:44;4.50;;;3.80;;
67749;SDS011;54550;48.838;8.828;2023-05-15T05:23:10;5.63;;;4.17;;
67749;SDS011;54550;48.838;8.828;2023-05-15T05:25:35;3.10;;;2.80;;
67749;SDS011;54550;48.838;8.828;2023-05-15T05:28:01;8.17;;;3.40;;
67749;SDS011;54550;48.838;8.828;2023-05-15T05:30:26;4.73;;;3.97;;
67749;SDS011;54550;48.838;8.828;2023-05-15T05:32:52;6.50;;;3.90;;
67749;SDS011;54550;48.838;8.828;2023-05-15T05:35:17;4.30;;;3.40;;
67749;SDS011;54550;48.838;8.828;2023-05-15T05:37:43;4.00;;;3.10;;
67749;SDS011;54550;48.838;8.828;2023-05-15T05:40:08;3.90;;;2.93;;
67749;SDS011;54550;48.838;8.828;2023-05-15T05:42:34;3.87;;;2.70;;
67749;SDS011;54550;48.838;8.828;2023-05-15T05:45:00;3.10;;;2.80;;
67749;SDS011;54550;48.838;8.828;2023-05-15T05:47:25;3.07;;;2.60;;
67749;SDS011;54550;48.838;8.828;2023-05-15T05:49:51;2.77;;;2.57;;
67749;SDS011;54550;48.838;8.828;2023-05-15T05:52:17;2.33;;;2.20;;
67749;SDS011;54550;48.838;8.828;2023-05-15T05:54:43;3.90;;;2.23;;
67749;SDS011;54550;48.838;8.828;2023-05-15T05:57:10;1.90;;;1.80;;
67749;SDS011;54550;48.838;8.828;2023-05-15T06:02:01;4.20;;;2.50;;
67749;SDS011;54550;48.838;8.828;2023-05-15T06:04:27;2.53;;;2.10;;
67749;SDS011;54550;48.838;8.828;2023-05-15T06:06:53;2.53;;;2.00;;
67749;SDS011;54550;48.838;8.828;2023-05-15T06:09:18;2.33;;;2.13;;
67749;SDS011;54550;48.838;8.828;2023-05-15T06:11:44;3.10;;;2.27;;
67749;SDS011;54550;48.838;8.828;2023-05-15T06:14:10;2.40;;;1.83;;
67749;SDS011;54550;48.838;8.828;2023-05-15T06:16:36;3.10;;;2.30;;
67749;SDS011;54550;48.838;8.828;2023-05-15T06:19:01;3.53;;;2.37;;
67749;SDS011;54550;48.838;8.828;2023-05-15T06:21:27;2.50;;;2.30;;
67749;SDS011;54550;48.838;8.828;2023-05-15T06:23:52;3.40;;;2.00;;
67749;SDS011;54550;48.838;8.828;2023-05-15T06:26:18;1.90;;;1.50;;
67749;SDS011;54550;48.838;8.828;2023-05-15T06:28:45;1.93;;;1.73;;
67749;SDS011;54550;48.838;8.828;2023-05-15T06:31:10;2.17;;;1.80;;
67749;SDS011;54550;48.838;8.828;2023-05-15T06:33:36;1.70;;;1.37;;
67749;SDS011;54550;48.838;8.828;2023-05-15T06:36:01;1.90;;;1.80;;
67749;SDS011;54550;48.838;8.828;2023-05-15T06:38:27;3.13;;;2.13;;
67749;SDS011;54550;48.838;8.828;2023-05-15T06:40:53;3.50;;;2.30;;
67749;SDS011;54550;48.838;8.828;2023-05-15T06:43:18;3.57;;;1.60;;
67749;SDS011;54550;48.838;8.828;2023-05-15T06:45:44;2.10;;;2.00;;
67749;SDS011;54550;48.838;8.828;2023-05-15T06:48:09;2.50;;;1.20;;
67749;SDS011;54550;48.838;8.828;2023-05-15T06:50:35;1.70;;;1.60;;
67749;SDS011;54550;48.838;8.828;2023-05-15T06:53:00;1.80;;;1.70;;
67749;SDS011;54550;48.838;8.828;2023-05-15T06:55:27;3.93;;;1.70;;
67749;SDS011;54550;48.838;8.828;2023-05-15T06:57:52;2.63;;;1.50;;
67749;SDS011;54550;48.838;8.828;2023-05-15T07:00:18;1.70;;;1.60;;
67749;SDS011;54550;48.838;8.828;2023-05-15T07:02:43;2.20;;;1.90;;
67749;SDS011;54550;48.838;8.828;2023-05-15T07:05:09;1.90;;;1.80;;
67749;SDS011;54550;48.838;8.828;2023-05-15T07:07:35;3.10;;;2.03;;
67749;SDS011;54550;48.838;8.828;2023-05-15T07:10:00;1.80;;;1.57;;
67749;SDS011;54550;48.838;8.828;2023-05-15T07:12:26;2.63;;;1.87;;
67749;SDS011;54550;48.838;8.828;2023-05-15T07:14:51;2.07;;;1.80;;
67749;SDS011;54550;48.838;8.828;2023-05-15T07:17:17;1.70;;;1.60;;
67749;SDS011;54550;48.838;8.828;2023-05-15T07:19:43;2.90;;;1.80;;
67749;SDS011;54550;48.838;8.828;2023-05-15T07:22:08;1.77;;;1.40;;
67749;SDS011;54550;48.838;8.828;2023-05-15T07:24:34;2.43;;;1.60;;
67749;SDS011;54550;48.838;8.828;2023-05-15T07:27:00;4.83;;;1.80;;
67749;SDS011;54550;48.838;8.828;2023-05-15T07:29:25;2.07;;;1.37;;
67749;SDS011;54550;48.838;8.828;2023-05-15T07:31:51;1.93;;;1.77;;
67749;SDS011;54550;48.838;8.828;2023-05-15T07:34:17;2.37;;;1.80;;
67749;SDS011;54550;48.838;8.828;2023-05-15T07:36:42;1.30;;;1.20;;
67749;SDS011;54550;48.838;8.828;2023-05-15T07:39:08;2.57;;;2.07;;
67749;SDS011;54550;48.838;8.828;2023-05-15T07:41:34;1.40;;;1.10;;
67749;SDS011;54550;48.838;8.828;2023-05-15T07:44:00;3.63;;;1.00;;
67749;SDS011;54550;48.838;8.828;2023-05-15T07:46:25;1.63;;;1.13;;
67749;SDS011;54550;48.838;8.828;2023-05-15T07:48:51;2.20;;;1.93;;
67749;SDS011;54550;48.838;8.828;2023-05-15T07:51:16;1.53;;;1.00;;
67749;SDS011;54550;48.838;8.828;2023-05-15T07:53:42;1.40;;;1.17;;
67749;SDS011;54550;48.838;8.828;2023-05-15T07:56:07;1.23;;;1.13;;
67749;SDS011;54550;48.838;8.828;2023-05-15T07:58:33;1.57;;;1.47;;
67749;SDS011;54550;48.838;8.828;2023-05-15T08:01:02;1.57;;;1.47;;
67749;SDS011;54550;48.838;8.828;2023-05-15T08:03:28;3.63;;;1.43;;
67749;SDS011;54550;48.838;8.828;2023-05-15T08:05:54;1.87;;;0.90;;
67749;SDS011;54550;48.838;8.828;2023-05-15T08:08:19;2.10;;;1.57;;
67749;SDS011;54550;48.838;8.828;2023-05-15T08:10:45;1.37;;;1.00;;
67749;SDS011;54550;48.838;8.828;2023-05-15T08:13:10;1.90;;;1.80;;
67749;SDS011;54550;48.838;8.828;2023-05-15T08:15:36;1.47;;;1.37;;
67749;SDS011;54550;48.838;8.828;2023-05-15T08:18:06;1.90;;;1.40;;
67749;SDS011;54550;48.838;8.828;2023-05-15T08:20:32;2.53;;;1.70;;
67749;SDS011;54550;48.838;8.828;2023-05-15T08:22:58;1.87;;;1.67;;
67749;SDS011;54550;48.838;8.828;2023-05-15T08:25:23;1.20;;;1.10;;
67749;SDS011;54550;48.838;8.828;2023-05-15T08:27:49;1.00;;;0.80;;
67749;SDS011;54550;48.838;8.828;2023-05-15T08:30:15;1.57;;;1.10;;
67749;SDS011;54550;48.838;8.828;2023-05-15T08:32:41;2.03;;;1.40;;
67749;SDS011;54550;48.838;8.828;2023-05-15T08:35:08;1.70;;;1.40;;
67749;SDS011;54550;48.838;8.828;2023-05-15T08:37:33;1.53;;;1.13;;
67749;SDS011;54550;48.838;8.828;2023-05-15T08:39:59;1.73;;;1.20;;
67749;SDS011;54550;48.838;8.828;2023-05-15T08:42:42;1.80;;;1.63;;
67749;SDS011;54550;48.838;8.828;2023-05-15T08:45:12;1.63;;;1.43;;
67749;SDS011;54550;48.838;8.828;2023-05-15T08:47:38;1.27;;;1.07;;
67749;SDS011;54550;48.838;8.828;2023-05-15T08:50:05;1.57;;;1.37;;
67749;SDS011;54550;48.838;8.828;2023-05-15T08:52:45;1.10;;;1.00;;
67749;SDS011;54550;48.838;8.828;2023-05-15T08:55:14;2.03;;;1.63;;
67749;SDS011;54550;48.838;8.828;2023-05-15T08:57:41;1.50;;;1.27;;
67749;SDS011;54550;48.838;8.828;2023-05-15T09:00:08;2.00;;;1.30;;
67749;SDS011;54550;48.838;8.828;2023-05-15T09:02:38;1.10;;;1.00;;
67749;SDS011;54550;48.838;8.828;2023-05-15T09:05:05;1.30;;;1.20;;
67749;SDS011;54550;48.838;8.828;2023-05-15T09:07:32;1.50;;;1.40;;
67749;SDS011;54550;48.838;8.828;2023-05-15T09:09:58;2.33;;;1.43;;
67749;SDS011;54550;48.838;8.828;2023-05-15T09:12:25;2.73;;;1.83;;
67749;SDS011;54550;48.838;8.828;2023-05-15T09:14:53;2.60;;;1.70;;
67749;SDS011;54550;48.838;8.828;2023-05-15T09:17:41;2.30;;;1.63;;
67749;SDS011;54550;48.838;8.828;2023-05-15T09:20:23;1.53;;;1.10;;
67749;SDS011;54550;48.838;8.828;2023-05-15T09:22:50;1.37;;;1.13;;
67749;SDS011;54550;48.838;8.828;2023-05-15T09:25:30;1.47;;;1.37;;
67749;SDS011;54550;48.838;8.828;2023-05-15T09:27:59;1.63;;;1.20;;
67749;SDS011;54550;48.838;8.828;2023-05-15T09:30:25;1.90;;;1.17;;
67749;SDS011;54550;48.838;8.828;2023-05-15T09:32:52;1.50;;;1.40;;
67749;SDS011;54550;48.838;8.828;2023-05-15T09:38:13;2.10;;;1.50;;
67749;SDS011;54550;48.838;8.828;2023-05-15T09:40:40;1.03;;;0.93;;
67749;SDS011;54550;48.838;8.828;2023-05-15T09:43:05;1.17;;;0.80;;
67749;SDS011;54550;48.838;8.828;2023-05-15T09:45:34;1.37;;;1.27;;
67749;SDS011;54550;48.838;8.828;2023-05-15T09:48:03;2.33;;;1.30;;
67749;SDS011;54550;48.838;8.828;2023-05-15T09:50:40;1.33;;;1.23;;
67749;SDS011;54550;48.838;8.828;2023-05-15T09:53:05;1.67;;;1.23;;
67749;SDS011;54550;48.838;8.828;2023-05-15T09:55:36;1.53;;;1.27;;
67749;SDS011;54550;48.838;8.828;2023-05-15T09:58:11;1.10;;;1.00;;
67749;SDS011;54550;48.838;8.828;2023-05-15T10:00:38;2.60;;;1.40;;
67749;SDS011;54550;48.838;8.828;2023-05-15T10:03:05;1.23;;;1.10;;
67749;SDS011;54550;48.838;8.828;2023-05-15T10:05:31;2.03;;;1.10;;
67749;SDS011;54550;48.838;8.828;2023-05-15T10:07:58;1.10;;;1.00;;
67749;SDS011;54550;48.838;8.828;2023-05-15T10:10:24;1.40;;;1.10;;
67749;SDS011;54550;48.838;8.828;2023-05-15T10:12:51;1.47;;;1.37;;
67749;SDS011;54550;48.838;8.828;2023-05-15T10:15:19;1.40;;;0.97;;
67749;SDS011;54550;48.838;8.828;2023-05-15T10:17:50;1.33;;;1.03;;
67749;SDS011;54550;48.838;8.828;2023-05-15T10:20:17;1.63;;;1.53;;
67749;SDS011;54550;48.838;8.828;2023-05-15T10:22:54;1.00;;;0.90;;
67749;SDS011;54550;48.838;8.828;2023-05-15T10:27:54;1.63;;;0.90;;
67749;SDS011;54550;48.838;8.828;2023-05-15T10:30:22;1.17;;;0.90;;
67749;SDS011;54550;48.838;8.828;2023-05-15T10:32:49;1.70;;;1.37;;
67749;SDS011;54550;48.838;8.828;2023-05-15T10:35:15;1.30;;;1.10;;
67749;SDS011;54550;48.838;8.828;2023-05-15T10:37:41;1.20;;;1.00;;
67749;SDS011;54550;48.838;8.828;2023-05-15T10:40:10;1.63;;;1.43;;
67749;SDS011;54550;48.838;8.828;2023-05-15T10:42:37;1.80;;;1.57;;
67749;SDS011;54550;48.838;8.828;2023-05-15T10:45:05;1.20;;;1.10;;
67749;SDS011;54550;48.838;8.828;2023-05-15T10:47:33;1.87;;;1.13;;
67749;SDS011;54550;48.838;8.828;2023-05-15T10:49:59;2.80;;;0.90;;
67749;SDS011;54550;48.838;8.828;2023-05-15T10:52:25;1.33;;;1.23;;
67749;SDS011;54550;48.838;8.828;2023-05-15T10:54:51;1.20;;;0.93;;
67749;SDS011;54550;48.838;8.828;2023-05-15T10:57:21;1.20;;;0.97;;
67749;SDS011;54550;48.838;8.828;2023-05-15T10:59:46;1.00;;;0.83;;
67749;SDS011;54550;48.838;8.828;2023-05-15T11:02:25;1.47;;;1.00;;
67749;SDS011;54550;48.838;8.828;2023-05-15T11:04:54;1.10;;;1.00;;
67749;SDS011;54550;48.838;8.828;2023-05-15T11:07:20;1.57;;;1.13;;
67749;SDS011;54550;48.838;8.828;2023-05-15T11:09:45;1.20;;;0.80;;
67749;SDS011;54550;48.838;8.828;2023-05-15T11:12:11;1.30;;;0.97;;
67749;SDS011;54550;48.838;8.828;2023-05-15T11:14:39;1.23;;;1.13;;
67749;SDS011;54550;48.838;8.828;2023-05-15T11:17:06;1.53;;;1.27;;
67749;SDS011;54550;48.838;8.828;2023-05-15T11:19:37;1.33;;;1.23;;
67749;SDS011;54550;48.838;8.828;2023-05-15T11:22:19;1.60;;;0.87;;
67749;SDS011;54550;48.838;8.828;2023-05-15T11:24:57;1.90;;;1.10;;
67749;SDS011;54550;48.838;8.828;2023-05-15T11:27:30;1.40;;;1.10;;
67749;SDS011;54550;48.838;8.828;2023-05-15T11:35:18;1.40;;;0.87;;
67749;SDS011;54550;48.838;8.828;2023-05-15T11:37:48;1.53;;;0.87;;
67749;SDS011;54550;48.838;8.828;2023-05-15T11:40:20;1.27;;;1.00;;
67749;SDS011;54550;48.838;8.828;2023-05-15T11:43:01;0.80;;;0.70;;
67749;SDS011;54550;48.838;8.828;2023-05-15T11:45:28;1.43;;;1.20;;
67749;SDS011;54550;48.838;8.828;2023-05-15T11:47:55;1.20;;;1.10;;
67749;SDS011;54550;48.838;8.828;2023-05-15T11:50:21;1.40;;;0.83;;
67749;SDS011;54550;48.838;8.828;2023-05-15T11:52:48;1.50;;;1.10;;
67749;SDS011;54550;48.838;8.828;2023-05-15T11:55:14;1.33;;;0.97;;
67749;SDS011;54550;48.838;8.828;2023-05-15T11:57:42;1.90;;;0.93;;
67749;SDS011;54550;48.838;8.828;2023-05-15T12:00:11;1.40;;;1.10;;
67749;SDS011;54550;48.838;8.828;2023-05-15T12:02:39;1.10;;;0.83;;
67749;SDS011;54550;48.838;8.828;2023-05-15T12:05:08;0.90;;;0.70;;
67749;SDS011;54550;48.838;8.828;2023-05-15T12:07:37;2.07;;;0.70;;
67749;SDS011;54550;48.838;8.828;2023-05-15T12:10:05;2.03;;;0.70;;
67749;SDS011;54550;48.838;8.828;2023-05-15T12:12:31;1.00;;;0.73;;
67749;SDS011;54550;48.838;8.828;2023-05-15T12:14:59;1.30;;;1.13;;
67749;SDS011;54550;48.838;8.828;2023-05-15T12:17:24;1.30;;;1.10;;
67749;SDS011;54550;48.838;8.828;2023-05-15T12:19:51;1.00;;;0.70;;
67749;SDS011;54550;48.838;8.828;2023-05-15T12:22:19;2.27;;;1.33;;
67749;SDS011;54550;48.838;8.828;2023-05-15T12:24:45;1.20;;;0.93;;
67749;SDS011;54550;48.838;8.828;2023-05-15T12:27:11;1.03;;;0.83;;
67749;SDS011;54550;48.838;8.828;2023-05-15T12:29:38;2.50;;;0.90;;
67749;SDS011;54550;48.838;8.828;2023-05-15T12:32:05;1.40;;;1.27;;
67749;SDS011;54550;48.838;8.828;2023-05-15T12:34:31;2.07;;;1.10;;
67749;SDS011;54550;48.838;8.828;2023-05-15T12:36:57;0.90;;;0.70;;
67749;SDS011;54550;48.838;8.828;2023-05-15T12:39:24;2.10;;;1.33;;
67749;SDS011;54550;48.838;8.828;2023-05-15T12:41:50;1.63;;;1.40;;
67749;SDS011;54550;48.838;8.828;2023-05-15T12:44:18;1.53;;;1.00;;
67749;SDS011;54550;48.838;8.828;2023-05-15T12:46:45;0.90;;;0.80;;
67749;SDS011;54550;48.838;8.828;2023-05-15T12:49:11;1.30;;;0.83;;
67749;SDS011;54550;48.838;8.828;2023-05-15T12:51:43;1.40;;;1.07;;
67749;SDS011;54550;48.838;8.828;2023-05-15T12:54:18;1.87;;;1.30;;
67749;SDS011;54550;48.838;8.828;2023-05-15T12:56:45;1.50;;;1.10;;
67749;SDS011;54550;48.838;8.828;2023-05-15T12:59:14;1.13;;;1.03;;
67749;SDS011;54550;48.838;8.828;2023-05-15T13:01:40;2.10;;;1.50;;
67749;SDS011;54550;48.838;8.828;2023-05-15T13:04:08;1.60;;;1.27;;
67749;SDS011;54550;48.838;8.828;2023-05-15T13:06:36;1.57;;;1.23;;
67749;SDS011;54550;48.838;8.828;2023-05-15T13:09:02;1.60;;;0.93;;
67749;SDS011;54550;48.838;8.828;2023-05-15T13:11:28;1.37;;;1.27;;
67749;SDS011;54550;48.838;8.828;2023-05-15T13:13:55;1.97;;;1.40;;
67749;SDS011;54550;48.838;8.828;2023-05-15T13:16:22;1.57;;;1.40;;
67749;SDS011;54550;48.838;8.828;2023-05-15T13:18:49;1.97;;;1.47;;
67749;SDS011;54550;48.838;8.828;2023-05-15T13:21:15;4.67;;;1.10;;
67749;SDS011;54550;48.838;8.828;2023-05-15T13:23:41;1.20;;;1.10;;
67749;SDS011;54550;48.838;8.828;2023-05-15T13:26:07;2.37;;;1.60;;
67749;SDS011;54550;48.838;8.828;2023-05-15T13:28:33;1.20;;;0.93;;
67749;SDS011;54550;48.838;8.828;2023-05-15T13:30:58;1.60;;;1.17;;
67749;SDS011;54550;48.838;8.828;2023-05-15T13:33:24;0.90;;;0.73;;
67749;SDS011;54550;48.838;8.828;2023-05-15T13:35:50;2.30;;;1.60;;
67749;SDS011;54550;48.838;8.828;2023-05-15T13:38:16;1.60;;;1.03;;
67749;SDS011;54550;48.838;8.828;2023-05-15T13:40:42;7.60;;;0.87;;
67749;SDS011;54550;48.838;8.828;2023-05-15T13:43:07;1.00;;;0.70;;
67749;SDS011;54550;48.838;8.828;2023-05-15T13:45:33;1.53;;;1.13;;
67749;SDS011;54550;48.838;8.828;2023-05-15T13:47:59;2.23;;;1.07;;
67749;SDS011;54550;48.838;8.828;2023-05-15T13:50:25;3.37;;;1.67;;
67749;SDS011;54550;48.838;8.828;2023-05-15T13:52:50;2.70;;;1.03;;
67749;SDS011;54550;48.838;8.828;2023-05-15T13:55:18;1.00;;;0.73;;
67749;SDS011;54550;48.838;8.828;2023-05-15T13:57:43;1.30;;;0.93;;
67749;SDS011;54550;48.838;8.828;2023-05-15T14:00:10;3.87;;;0.83;;
67749;SDS011;54550;48.838;8.828;2023-05-15T14:02:37;0.80;;;0.63;;
67749;SDS011;54550;48.838;8.828;2023-05-15T14:05:03;9.40;;;1.30;;
67749;SDS011;54550;48.838;8.828;2023-05-15T14:07:29;1.47;;;1.30;;
67749;SDS011;54550;48.838;8.828;2023-05-15T14:09:56;3.20;;;1.33;;
67749;SDS011;54550;48.838;8.828;2023-05-15T14:12:22;2.80;;;1.00;;
67749;SDS011;54550;48.838;8.828;2023-05-15T14:14:47;1.30;;;0.90;;
67749;SDS011;54550;48.838;8.828;2023-05-15T14:17:13;1.30;;;1.20;;
67749;SDS011;54550;48.838;8.828;2023-05-15T14:19:39;1.00;;;0.90;;
67749;SDS011;54550;48.838;8.828;2023-05-15T14:22:05;2.23;;;1.30;;
67749;SDS011;54550;48.838;8.828;2023-05-15T14:24:30;1.60;;;1.10;;
67749;SDS011;54550;48.838;8.828;2023-05-15T14:26:56;1.60;;;1.00;;
67749;SDS011;54550;48.838;8.828;2023-05-15T14:29:21;1.30;;;1.20;;
67749;SDS011;54550;48.838;8.828;2023-05-15T14:31:47;3.40;;;2.27;;
67749;SDS011;54550;48.838;8.828;2023-05-15T14:34:13;4.93;;;1.87;;
67749;SDS011;54550;48.838;8.828;2023-05-15T14:36:39;2.50;;;1.70;;
67749;SDS011;54550;48.838;8.828;2023-05-15T14:39:04;3.43;;;2.20;;
67749;SDS011;54550;48.838;8.828;2023-05-15T14:41:30;3.27;;;2.47;;
67749;SDS011;54550;48.838;8.828;2023-05-15T14:43:56;4.60;;;2.13;;
67749;SDS011;54550;48.838;8.828;2023-05-15T14:46:21;3.00;;;2.30;;
67749;SDS011;54550;48.838;8.828;2023-05-15T14:48:47;2.37;;;1.80;;
67749;SDS011;54550;48.838;8.828;2023-05-15T14:51:12;4.17;;;2.20;;
67749;SDS011;54550;48.838;8.828;2023-05-15T14:53:38;2.60;;;2.40;;
67749;SDS011;54550;48.838;8.828;2023-05-15T14:56:05;4.30;;;2.43;;
67749;SDS011;54550;48.838;8.828;2023-05-15T14:58:31;2.40;;;2.07;;
67749;SDS011;54550;48.838;8.828;2023-05-15T15:00:57;3.90;;;3.00;;
67749;SDS011;54550;48.838;8.828;2023-05-15T15:03:22;2.87;;;2.10;;
67749;SDS011;54550;48.838;8.828;2023-05-15T15:05:48;5.37;;;3.33;;
67749;SDS011;54550;48.838;8.828;2023-05-15T15:08:15;5.00;;;3.47;;
67749;SDS011;54550;48.838;8.828;2023-05-15T15:10:41;6.13;;;3.60;;
67749;SDS011;54550;48.838;8.828;2023-05-15T15:13:07;7.63;;;3.77;;
67749;SDS011;54550;48.838;8.828;2023-05-15T15:15:36;4.20;;;2.90;;
67749;SDS011;54550;48.838;8.828;2023-05-15T15:18:01;3.87;;;3.50;;
67749;SDS011;54550;48.838;8.828;2023-05-15T15:20:27;3.50;;;3.00;;
67749;SDS011;54550;48.838;8.828;2023-05-15T15:22:53;5.60;;;3.93;;
67749;SDS011;54550;48.838;8.828;2023-05-15T15:25:19;11.40;;;4.07;;